sensor_id;sensor_type;location;lat;lon;timestamp;temperature;humidity
67890;DHT22;54685;52.082;5.426;2023-04-28T00:00:52;10.20;72.90
67890;DHT22;54685;52.082;5.426;2023-04-28T00:03:19;10.20;74.60
67890;DHT22;54685;52.082;5.426;2023-04-28T00:05:46;10.20;78.40
67890;DHT22;54685;52.082;5.426;2023-04-28T00:08:15;10.20;74.90
67890;DHT22;54685;52.082;5.426;2023-04-28T00:10:42;10.10;73.40
67890;DHT22;54685;52.082;5.426;2023-04-28T00:13:09;10.10;73.00
67890;DHT22;54685;52.082;5.426;2023-04-28T00:15:37;10.10;75.50
67890;DHT22;54685;52.082;5.426;2023-04-28T00:18:04;10.10;74.20
67890;DHT22;54685;52.082;5.426;2023-04-28T00:20:31;10.10;75.80
67890;DHT22;54685;52.082;5.426;2023-04-28T00:25:51;10.10;75.60
67890;DHT22;54685;52.082;5.426;2023-04-28T00:28:19;10.10;74.70
67890;DHT22;54685;52.082;5.426;2023-04-28T00:31:00;10.10;76.10
67890;DHT22;54685;52.082;5.426;2023-04-28T00:33:27;10.10;75.50
67890;DHT22;54685;52.082;5.426;2023-04-28T00:35:58;10.20;78.80
67890;DHT22;54685;52.082;5.426;2023-04-28T00:38:27;10.10;76.30
67890;DHT22;54685;52.082;5.426;2023-04-28T00:40:54;10.10;78.90
67890;DHT22;54685;52.082;5.426;2023-04-28T00:43:21;10.10;79.30
67890;DHT22;54685;52.082;5.426;2023-04-28T00:45:49;10.10;80.00
67890;DHT22;54685;52.082;5.426;2023-04-28T00:48:17;10.20;69.80
67890;DHT22;54685;52.082;5.426;2023-04-28T00:50:46;10.20;77.00
67890;DHT22;54685;52.082;5.426;2023-04-28T00:53:13;10.20;78.50
67890;DHT22;54685;52.082;5.426;2023-04-28T00:55:40;10.20;77.60
67890;DHT22;54685;52.082;5.426;2023-04-28T00:58:09;10.20;77.40
67890;DHT22;54685;52.082;5.426;2023-04-28T01:00:36;10.20;79.20
67890;DHT22;54685;52.082;5.426;2023-04-28T01:03:03;10.10;72.50
67890;DHT22;54685;52.082;5.426;2023-04-28T01:05:34;10.10;76.30
67890;DHT22;54685;52.082;5.426;2023-04-28T01:08:02;10.00;75.20
67890;DHT22;54685;52.082;5.426;2023-04-28T01:10:30;10.10;78.30
67890;DHT22;54685;52.082;5.426;2023-04-28T01:13:09;10.10;79.00
67890;DHT22;54685;52.082;5.426;2023-04-28T01:15:39;10.10;79.90
67890;DHT22;54685;52.082;5.426;2023-04-28T01:18:06;10.00;79.80
67890;DHT22;54685;52.082;5.426;2023-04-28T01:20:33;10.00;75.90
67890;DHT22;54685;52.082;5.426;2023-04-28T01:23:00;10.00;82.80
67890;DHT22;54685;52.082;5.426;2023-04-28T01:25:28;10.00;81.40
67890;DHT22;54685;52.082;5.426;2023-04-28T01:27:55;10.00;81.60
67890;DHT22;54685;52.082;5.426;2023-04-28T01:30:22;10.00;79.80
67890;DHT22;54685;52.082;5.426;2023-04-28T01:32:49;10.00;80.50
67890;DHT22;54685;52.082;5.426;2023-04-28T01:35:18;10.00;79.60
67890;DHT22;54685;52.082;5.426;2023-04-28T01:37:45;10.00;82.10
67890;DHT22;54685;52.082;5.426;2023-04-28T01:40:12;10.00;82.70
67890;DHT22;54685;52.082;5.426;2023-04-28T01:42:39;10.00;82.30
67890;DHT22;54685;52.082;5.426;2023-04-28T01:45:06;10.00;80.90
67890;DHT22;54685;52.082;5.426;2023-04-28T01:47:35;10.00;81.30
67890;DHT22;54685;52.082;5.426;2023-04-28T01:50:02;10.00;78.10
67890;DHT22;54685;52.082;5.426;2023-04-28T01:52:29;10.00;79.90
67890;DHT22;54685;52.082;5.426;2023-04-28T01:54:56;10.00;80.60
67890;DHT22;54685;52.082;5.426;2023-04-28T01:57:23;9.90;76.50
67890;DHT22;54685;52.082;5.426;2023-04-28T01:59:56;9.90;79.20
67890;DHT22;54685;52.082;5.426;2023-04-28T02:02:26;10.00;80.90
67890;DHT22;54685;52.082;5.426;2023-04-28T02:04:53;9.90;78.50
67890;DHT22;54685;52.082;5.426;2023-04-28T02:07:20;9.90;82.50
67890;DHT22;54685;52.082;5.426;2023-04-28T02:09:49;9.80;80.60
67890;DHT22;54685;52.082;5.426;2023-04-28T02:12:19;9.80;79.50
67890;DHT22;54685;52.082;5.426;2023-04-28T02:14:46;9.80;82.10
67890;DHT22;54685;52.082;5.426;2023-04-28T02:17:13;9.80;79.90
67890;DHT22;54685;52.082;5.426;2023-04-28T02:19:41;9.80;77.10
67890;DHT22;54685;52.082;5.426;2023-04-28T02:22:08;9.80;79.40
67890;DHT22;54685;52.082;5.426;2023-04-28T02:24:39;9.80;82.00
67890;DHT22;54685;52.082;5.426;2023-04-28T02:27:08;9.80;83.60
67890;DHT22;54685;52.082;5.426;2023-04-28T02:29:35;9.70;81.90
67890;DHT22;54685;52.082;5.426;2023-04-28T02:32:02;9.80;83.00
67890;DHT22;54685;52.082;5.426;2023-04-28T02:34:30;9.80;81.80
67890;DHT22;54685;52.082;5.426;2023-04-28T02:36:57;9.80;80.80
67890;DHT22;54685;52.082;5.426;2023-04-28T02:39:24;9.80;85.00
67890;DHT22;54685;52.082;5.426;2023-04-28T02:41:55;9.80;84.10
67890;DHT22;54685;52.082;5.426;2023-04-28T02:44:22;9.70;81.90
67890;DHT22;54685;52.082;5.426;2023-04-28T02:46:49;9.70;82.70
67890;DHT22;54685;52.082;5.426;2023-04-28T02:49:17;9.80;84.90
67890;DHT22;54685;52.082;5.426;2023-04-28T02:51:44;9.80;85.40
67890;DHT22;54685;52.082;5.426;2023-04-28T02:54:13;9.80;84.50
67890;DHT22;54685;52.082;5.426;2023-04-28T02:56:41;9.80;84.80
67890;DHT22;54685;52.082;5.426;2023-04-28T02:59:08;9.70;85.90
67890;DHT22;54685;52.082;5.426;2023-04-28T03:01:35;9.70;84.20
67890;DHT22;54685;52.082;5.426;2023-04-28T03:04:02;9.70;84.80
67890;DHT22;54685;52.082;5.426;2023-04-28T03:06:30;9.70;81.90
67890;DHT22;54685;52.082;5.426;2023-04-28T03:08:58;9.60;84.70
67890;DHT22;54685;52.082;5.426;2023-04-28T03:11:26;9.70;83.70
67890;DHT22;54685;52.082;5.426;2023-04-28T03:13:52;9.60;86.90
67890;DHT22;54685;52.082;5.426;2023-04-28T03:16:20;9.60;86.20
67890;DHT22;54685;52.082;5.426;2023-04-28T03:18:51;9.60;85.70
67890;DHT22;54685;52.082;5.426;2023-04-28T03:21:18;9.60;87.20
67890;DHT22;54685;52.082;5.426;2023-04-28T03:23:45;9.60;86.30
67890;DHT22;54685;52.082;5.426;2023-04-28T03:26:13;9.60;83.50
67890;DHT22;54685;52.082;5.426;2023-04-28T03:28:40;9.50;85.40
67890;DHT22;54685;52.082;5.426;2023-04-28T03:31:07;9.50;86.20
67890;DHT22;54685;52.082;5.426;2023-04-28T03:33:34;9.50;85.60
67890;DHT22;54685;52.082;5.426;2023-04-28T03:36:01;9.40;85.80
67890;DHT22;54685;52.082;5.426;2023-04-28T03:38:28;9.50;85.40
67890;DHT22;54685;52.082;5.426;2023-04-28T03:40:55;9.40;85.50
67890;DHT22;54685;52.082;5.426;2023-04-28T03:43:41;9.50;88.70
67890;DHT22;54685;52.082;5.426;2023-04-28T03:46:19;9.50;84.30
67890;DHT22;54685;52.082;5.426;2023-04-28T03:48:47;9.50;88.60
67890;DHT22;54685;52.082;5.426;2023-04-28T03:51:14;9.50;89.00
67890;DHT22;54685;52.082;5.426;2023-04-28T03:53:41;9.60;90.50
67890;DHT22;54685;52.082;5.426;2023-04-28T03:56:08;9.60;90.60
67890;DHT22;54685;52.082;5.426;2023-04-28T03:58:35;9.70;91.30
67890;DHT22;54685;52.082;5.426;2023-04-28T04:01:02;9.70;90.30
67890;DHT22;54685;52.082;5.426;2023-04-28T04:03:29;9.70;90.60
67890;DHT22;54685;52.082;5.426;2023-04-28T04:05:57;9.70;90.60
67890;DHT22;54685;52.082;5.426;2023-04-28T04:08:24;9.70;90.20
67890;DHT22;54685;52.082;5.426;2023-04-28T04:10:52;9.70;91.10
67890;DHT22;54685;52.082;5.426;2023-04-28T04:13:21;9.70;90.50
67890;DHT22;54685;52.082;5.426;2023-04-28T04:15:49;9.70;90.30
67890;DHT22;54685;52.082;5.426;2023-04-28T04:18:16;9.70;90.80
67890;DHT22;54685;52.082;5.426;2023-04-28T04:21:06;9.70;90.50
67890;DHT22;54685;52.082;5.426;2023-04-28T04:23:33;9.70;90.70
67890;DHT22;54685;52.082;5.426;2023-04-28T04:26:00;9.70;90.40
67890;DHT22;54685;52.082;5.426;2023-04-28T04:28:27;9.70;90.60
67890;DHT22;54685;52.082;5.426;2023-04-28T04:30:54;9.60;90.90
67890;DHT22;54685;52.082;5.426;2023-04-28T04:33:21;9.70;91.00
67890;DHT22;54685;52.082;5.426;2023-04-28T04:35:49;9.70;88.20
67890;DHT22;54685;52.082;5.426;2023-04-28T04:38:16;9.60;90.80
67890;DHT22;54685;52.082;5.426;2023-04-28T04:40:43;9.50;91.20
67890;DHT22;54685;52.082;5.426;2023-04-28T04:43:10;9.50;90.00
67890;DHT22;54685;52.082;5.426;2023-04-28T04:45:43;9.50;91.20
67890;DHT22;54685;52.082;5.426;2023-04-28T04:48:12;9.60;92.60
67890;DHT22;54685;52.082;5.426;2023-04-28T04:50:41;9.60;92.50
67890;DHT22;54685;52.082;5.426;2023-04-28T04:53:09;9.60;92.60
67890;DHT22;54685;52.082;5.426;2023-04-28T04:55:42;9.70;92.60
67890;DHT22;54685;52.082;5.426;2023-04-28T04:58:09;9.70;92.30
67890;DHT22;54685;52.082;5.426;2023-04-28T05:00:45;9.70;92.90
67890;DHT22;54685;52.082;5.426;2023-04-28T05:03:13;9.70;92.90
67890;DHT22;54685;52.082;5.426;2023-04-28T05:05:41;9.70;93.30
67890;DHT22;54685;52.082;5.426;2023-04-28T05:08:16;9.80;93.30
67890;DHT22;54685;52.082;5.426;2023-04-28T05:10:43;9.80;94.10
67890;DHT22;54685;52.082;5.426;2023-04-28T05:13:10;9.80;93.60
67890;DHT22;54685;52.082;5.426;2023-04-28T05:15:38;9.80;94.10
67890;DHT22;54685;52.082;5.426;2023-04-28T05:18:28;9.80;94.40
67890;DHT22;54685;52.082;5.426;2023-04-28T05:20:55;9.80;94.60
67890;DHT22;54685;52.082;5.426;2023-04-28T05:23:22;9.80;94.60
67890;DHT22;54685;52.082;5.426;2023-04-28T05:25:50;9.80;95.50
67890;DHT22;54685;52.082;5.426;2023-04-28T05:28:17;9.80;95.30
67890;DHT22;54685;52.082;5.426;2023-04-28T05:30:48;9.80;95.70
67890;DHT22;54685;52.082;5.426;2023-04-28T05:33:15;9.90;96.30
67890;DHT22;54685;52.082;5.426;2023-04-28T05:35:42;9.90;98.60
67890;DHT22;54685;52.082;5.426;2023-04-28T05:38:09;9.90;98.80
67890;DHT22;54685;52.082;5.426;2023-04-28T05:40:37;9.90;98.60
67890;DHT22;54685;52.082;5.426;2023-04-28T05:43:04;9.80;99.10
67890;DHT22;54685;52.082;5.426;2023-04-28T05:45:31;9.90;99.90
67890;DHT22;54685;52.082;5.426;2023-04-28T05:47:58;9.90;99.90
67890;DHT22;54685;52.082;5.426;2023-04-28T05:50:26;9.90;99.90
67890;DHT22;54685;52.082;5.426;2023-04-28T05:52:53;9.90;99.90
67890;DHT22;54685;52.082;5.426;2023-04-28T05:55:20;9.80;99.90
67890;DHT22;54685;52.082;5.426;2023-04-28T05:57:47;9.80;99.90
67890;DHT22;54685;52.082;5.426;2023-04-28T06:00:19;9.90;99.90
67890;DHT22;54685;52.082;5.426;2023-04-28T06:02:48;9.80;99.90
67890;DHT22;54685;52.082;5.426;2023-04-28T06:05:16;9.90;99.90
67890;DHT22;54685;52.082;5.426;2023-04-28T06:07:44;9.90;99.90
67890;DHT22;54685;52.082;5.426;2023-04-28T06:10:15;9.90;99.90
67890;DHT22;54685;52.082;5.426;2023-04-28T06:12:42;9.90;99.90
67890;DHT22;54685;52.082;5.426;2023-04-28T06:15:10;9.90;99.90
67890;DHT22;54685;52.082;5.426;2023-04-28T06:17:38;10.00;99.90
67890;DHT22;54685;52.082;5.426;2023-04-28T06:20:07;9.90;99.90
67890;DHT22;54685;52.082;5.426;2023-04-28T06:22:36;9.90;99.90
67890;DHT22;54685;52.082;5.426;2023-04-28T06:25:05;9.90;99.90
67890;DHT22;54685;52.082;5.426;2023-04-28T06:27:43;9.90;99.90
67890;DHT22;54685;52.082;5.426;2023-04-28T06:30:16;10.00;99.90
67890;DHT22;54685;52.082;5.426;2023-04-28T06:32:44;10.00;99.90
67890;DHT22;54685;52.082;5.426;2023-04-28T06:35:13;10.00;99.90
67890;DHT22;54685;52.082;5.426;2023-04-28T06:37:42;10.10;99.90
67890;DHT22;54685;52.082;5.426;2023-04-28T06:40:10;10.10;99.90
67890;DHT22;54685;52.082;5.426;2023-04-28T06:42:41;10.10;99.90
67890;DHT22;54685;52.082;5.426;2023-04-28T06:46:09;10.10;99.90
67890;DHT22;54685;52.082;5.426;2023-04-28T06:48:37;10.30;99.90
67890;DHT22;54685;52.082;5.426;2023-04-28T06:51:05;10.20;99.90
67890;DHT22;54685;52.082;5.426;2023-04-28T06:53:34;10.20;99.90
67890;DHT22;54685;52.082;5.426;2023-04-28T06:56:00;10.30;99.90
67890;DHT22;54685;52.082;5.426;2023-04-28T06:58:28;10.20;99.90
67890;DHT22;54685;52.082;5.426;2023-04-28T07:00:55;10.30;99.90
67890;DHT22;54685;52.082;5.426;2023-04-28T07:03:22;10.30;99.90
67890;DHT22;54685;52.082;5.426;2023-04-28T07:05:50;10.30;99.90
67890;DHT22;54685;52.082;5.426;2023-04-28T07:08:18;10.50;99.90
67890;DHT22;54685;52.082;5.426;2023-04-28T07:10:45;10.40;99.90
67890;DHT22;54685;52.082;5.426;2023-04-28T07:13:12;10.40;99.90
67890;DHT22;54685;52.082;5.426;2023-04-28T07:15:39;10.50;99.90
67890;DHT22;54685;52.082;5.426;2023-04-28T07:18:49;10.50;99.90
67890;DHT22;54685;52.082;5.426;2023-04-28T07:21:19;10.70;99.90
67890;DHT22;54685;52.082;5.426;2023-04-28T07:24:01;10.70;99.90
67890;DHT22;54685;52.082;5.426;2023-04-28T07:26:29;10.90;99.90
67890;DHT22;54685;52.082;5.426;2023-04-28T07:29:11;10.90;99.90
67890;DHT22;54685;52.082;5.426;2023-04-28T07:31:55;11.00;99.90
67890;DHT22;54685;52.082;5.426;2023-04-28T07:34:52;11.10;99.90
67890;DHT22;54685;52.082;5.426;2023-04-28T07:40:08;11.20;99.90
67890;DHT22;54685;52.082;5.426;2023-04-28T07:42:36;11.30;99.90
67890;DHT22;54685;52.082;5.426;2023-04-28T07:45:06;11.30;99.90
67890;DHT22;54685;52.082;5.426;2023-04-28T07:51:10;11.60;99.90
67890;DHT22;54685;52.082;5.426;2023-04-28T07:53:38;11.70;99.90
67890;DHT22;54685;52.082;5.426;2023-04-28T07:57:18;11.70;99.90
67890;DHT22;54685;52.082;5.426;2023-04-28T07:59:47;11.80;99.90
67890;DHT22;54685;52.082;5.426;2023-04-28T08:02:40;11.90;99.90
67890;DHT22;54685;52.082;5.426;2023-04-28T08:05:21;11.90;99.90
67890;DHT22;54685;52.082;5.426;2023-04-28T08:07:51;12.00;99.90
67890;DHT22;54685;52.082;5.426;2023-04-28T08:10:19;12.00;99.90
67890;DHT22;54685;52.082;5.426;2023-04-28T08:12:47;12.10;99.90
67890;DHT22;54685;52.082;5.426;2023-04-28T08:15:16;12.10;99.90
67890;DHT22;54685;52.082;5.426;2023-04-28T08:17:44;12.20;99.90
67890;DHT22;54685;52.082;5.426;2023-04-28T08:20:11;12.20;99.90
67890;DHT22;54685;52.082;5.426;2023-04-28T08:22:40;12.10;99.90
67890;DHT22;54685;52.082;5.426;2023-04-28T08:25:49;12.10;99.90
67890;DHT22;54685;52.082;5.426;2023-04-28T08:51:02;12.20;99.90
67890;DHT22;54685;52.082;5.426;2023-04-28T09:05:52;12.50;99.90
67890;DHT22;54685;52.082;5.426;2023-04-28T09:08:19;12.50;99.90
67890;DHT22;54685;52.082;5.426;2023-04-28T09:10:47;12.50;99.90
67890;DHT22;54685;52.082;5.426;2023-04-28T09:13:24;12.50;99.90
67890;DHT22;54685;52.082;5.426;2023-04-28T09:15:58;12.40;99.90
67890;DHT22;54685;52.082;5.426;2023-04-28T09:18:25;12.40;99.90
67890;DHT22;54685;52.082;5.426;2023-04-28T09:21:02;12.40;99.90
67890;DHT22;54685;52.082;5.426;2023-04-28T09:23:30;12.30;99.90
67890;DHT22;54685;52.082;5.426;2023-04-28T09:26:05;12.40;99.90
67890;DHT22;54685;52.082;5.426;2023-04-28T09:28:34;12.40;99.90
67890;DHT22;54685;52.082;5.426;2023-04-28T09:31:01;12.30;99.90
67890;DHT22;54685;52.082;5.426;2023-04-28T09:33:28;12.40;99.90
67890;DHT22;54685;52.082;5.426;2023-04-28T09:35:57;12.40;99.90
67890;DHT22;54685;52.082;5.426;2023-04-28T09:38:24;12.40;99.90
67890;DHT22;54685;52.082;5.426;2023-04-28T09:40:53;12.50;99.90
67890;DHT22;54685;52.082;5.426;2023-04-28T09:43:29;12.50;99.90
67890;DHT22;54685;52.082;5.426;2023-04-28T09:45:58;12.50;99.90
67890;DHT22;54685;52.082;5.426;2023-04-28T09:48:30;12.50;99.90
67890;DHT22;54685;52.082;5.426;2023-04-28T09:51:02;12.60;99.90
67890;DHT22;54685;52.082;5.426;2023-04-28T09:53:29;12.60;99.90
67890;DHT22;54685;52.082;5.426;2023-04-28T09:55:58;12.70;99.90
67890;DHT22;54685;52.082;5.426;2023-04-28T09:58:27;12.70;99.90
67890;DHT22;54685;52.082;5.426;2023-04-28T10:00:56;12.70;99.90
67890;DHT22;54685;52.082;5.426;2023-04-28T10:03:28;12.80;99.90
67890;DHT22;54685;52.082;5.426;2023-04-28T10:05:57;12.80;99.90
67890;DHT22;54685;52.082;5.426;2023-04-28T10:08:25;12.80;99.90
67890;DHT22;54685;52.082;5.426;2023-04-28T10:10:54;12.80;99.90
67890;DHT22;54685;52.082;5.426;2023-04-28T10:13:23;12.80;99.90
67890;DHT22;54685;52.082;5.426;2023-04-28T10:15:50;12.80;99.90
67890;DHT22;54685;52.082;5.426;2023-04-28T10:18:24;12.80;99.90
67890;DHT22;54685;52.082;5.426;2023-04-28T10:20:56;12.80;99.90
67890;DHT22;54685;52.082;5.426;2023-04-28T10:26:12;12.80;99.90
67890;DHT22;54685;52.082;5.426;2023-04-28T10:28:48;12.90;99.90
67890;DHT22;54685;52.082;5.426;2023-04-28T10:31:17;12.90;99.90
67890;DHT22;54685;52.082;5.426;2023-04-28T10:33:44;12.90;99.90
67890;DHT22;54685;52.082;5.426;2023-04-28T10:36:50;12.90;99.90
67890;DHT22;54685;52.082;5.426;2023-04-28T10:39:23;12.90;99.90
67890;DHT22;54685;52.082;5.426;2023-04-28T10:41:50;13.00;99.90
67890;DHT22;54685;52.082;5.426;2023-04-28T10:55:34;13.00;99.90
67890;DHT22;54685;52.082;5.426;2023-04-28T11:00:46;13.00;99.90
67890;DHT22;54685;52.082;5.426;2023-04-28T11:03:41;13.10;99.90
67890;DHT22;54685;52.082;5.426;2023-04-28T11:06:26;13.10;99.90
67890;DHT22;54685;52.082;5.426;2023-04-28T11:09:46;13.20;99.90
67890;DHT22;54685;52.082;5.426;2023-04-28T11:16:58;13.20;99.90
67890;DHT22;54685;52.082;5.426;2023-04-28T11:19:52;13.10;99.90
67890;DHT22;54685;52.082;5.426;2023-04-28T11:22:21;13.10;99.90
67890;DHT22;54685;52.082;5.426;2023-04-28T11:27:27;13.10;99.90
67890;DHT22;54685;52.082;5.426;2023-04-28T11:29:54;13.10;99.90
67890;DHT22;54685;52.082;5.426;2023-04-28T11:32:26;13.10;99.90
67890;DHT22;54685;52.082;5.426;2023-04-28T11:34:56;13.20;99.90
67890;DHT22;54685;52.082;5.426;2023-04-28T11:37:24;13.30;99.90
67890;DHT22;54685;52.082;5.426;2023-04-28T11:39:50;13.50;99.90
67890;DHT22;54685;52.082;5.426;2023-04-28T11:42:18;13.80;99.90
67890;DHT22;54685;52.082;5.426;2023-04-28T11:44:52;14.00;99.90
67890;DHT22;54685;52.082;5.426;2023-04-28T11:47:30;14.20;99.90
67890;DHT22;54685;52.082;5.426;2023-04-28T11:49:58;14.50;99.90
67890;DHT22;54685;52.082;5.426;2023-04-28T11:52:25;14.60;99.90
67890;DHT22;54685;52.082;5.426;2023-04-28T11:54:59;14.60;99.90
67890;DHT22;54685;52.082;5.426;2023-04-28T11:57:28;14.50;99.90
67890;DHT22;54685;52.082;5.426;2023-04-28T12:00:11;14.30;99.90
67890;DHT22;54685;52.082;5.426;2023-04-28T12:02:40;14.20;99.90
67890;DHT22;54685;52.082;5.426;2023-04-28T12:05:07;14.20;99.90
67890;DHT22;54685;52.082;5.426;2023-04-28T12:07:40;14.10;99.90
67890;DHT22;54685;52.082;5.426;2023-04-28T12:10:11;14.10;99.90
67890;DHT22;54685;52.082;5.426;2023-04-28T12:12:38;14.00;99.90
67890;DHT22;54685;52.082;5.426;2023-04-28T12:15:17;13.90;99.90
67890;DHT22;54685;52.082;5.426;2023-04-28T12:17:46;13.90;99.90
67890;DHT22;54685;52.082;5.426;2023-04-28T12:20:36;13.80;99.90
67890;DHT22;54685;52.082;5.426;2023-04-28T12:23:04;13.80;99.90
67890;DHT22;54685;52.082;5.426;2023-04-28T12:25:42;13.80;99.90
67890;DHT22;54685;52.082;5.426;2023-04-28T12:28:13;13.90;99.90
67890;DHT22;54685;52.082;5.426;2023-04-28T12:30:41;14.00;99.90
67890;DHT22;54685;52.082;5.426;2023-04-28T12:33:26;14.10;99.90
67890;DHT22;54685;52.082;5.426;2023-04-28T12:35:56;14.10;99.90
67890;DHT22;54685;52.082;5.426;2023-04-28T12:38:24;14.10;99.90
67890;DHT22;54685;52.082;5.426;2023-04-28T12:40:52;14.10;99.90
67890;DHT22;54685;52.082;5.426;2023-04-28T12:43:19;14.00;99.90
67890;DHT22;54685;52.082;5.426;2023-04-28T12:45:53;14.00;99.90
67890;DHT22;54685;52.082;5.426;2023-04-28T12:48:21;14.00;99.90
67890;DHT22;54685;52.082;5.426;2023-04-28T12:50:51;14.00;99.90
67890;DHT22;54685;52.082;5.426;2023-04-28T12:53:18;14.10;99.90
67890;DHT22;54685;52.082;5.426;2023-04-28T12:55:45;14.10;99.90
67890;DHT22;54685;52.082;5.426;2023-04-28T12:58:12;14.10;99.90
67890;DHT22;54685;52.082;5.426;2023-04-28T13:00:39;14.10;99.90
67890;DHT22;54685;52.082;5.426;2023-04-28T13:03:07;14.00;99.90
67890;DHT22;54685;52.082;5.426;2023-04-28T13:05:35;14.00;99.90
67890;DHT22;54685;52.082;5.426;2023-04-28T13:08:02;14.10;99.90
67890;DHT22;54685;52.082;5.426;2023-04-28T13:10:29;14.00;99.90
67890;DHT22;54685;52.082;5.426;2023-04-28T13:12:57;14.00;99.90
67890;DHT22;54685;52.082;5.426;2023-04-28T13:15:24;13.90;99.90
67890;DHT22;54685;52.082;5.426;2023-04-28T13:17:51;14.00;99.90
67890;DHT22;54685;52.082;5.426;2023-04-28T13:20:18;14.00;99.90
67890;DHT22;54685;52.082;5.426;2023-04-28T13:22:45;14.10;99.90
67890;DHT22;54685;52.082;5.426;2023-04-28T13:25:11;14.10;99.90
67890;DHT22;54685;52.082;5.426;2023-04-28T13:27:38;14.10;99.90
67890;DHT22;54685;52.082;5.426;2023-04-28T13:30:09;14.20;99.90
67890;DHT22;54685;52.082;5.426;2023-04-28T13:32:36;14.20;99.90
67890;DHT22;54685;52.082;5.426;2023-04-28T13:35:04;14.20;99.90
67890;DHT22;54685;52.082;5.426;2023-04-28T13:37:31;14.20;99.90
67890;DHT22;54685;52.082;5.426;2023-04-28T13:40:00;14.30;99.90
67890;DHT22;54685;52.082;5.426;2023-04-28T13:42:30;14.30;99.90
67890;DHT22;54685;52.082;5.426;2023-04-28T13:44:57;14.30;99.90
67890;DHT22;54685;52.082;5.426;2023-04-28T13:47:23;14.30;99.90
67890;DHT22;54685;52.082;5.426;2023-04-28T13:49:52;14.30;99.90
67890;DHT22;54685;52.082;5.426;2023-04-28T13:52:19;14.30;99.90
67890;DHT22;54685;52.082;5.426;2023-04-28T13:54:48;14.20;99.90
67890;DHT22;54685;52.082;5.426;2023-04-28T13:57:15;14.20;99.90
67890;DHT22;54685;52.082;5.426;2023-04-28T13:59:42;14.20;99.90
67890;DHT22;54685;52.082;5.426;2023-04-28T14:02:09;14.10;99.90
67890;DHT22;54685;52.082;5.426;2023-04-28T14:04:37;14.10;99.90
67890;DHT22;54685;52.082;5.426;2023-04-28T14:07:05;14.10;99.90
67890;DHT22;54685;52.082;5.426;2023-04-28T14:09:32;14.10;99.90
67890;DHT22;54685;52.082;5.426;2023-04-28T14:11:59;14.10;99.90
67890;DHT22;54685;52.082;5.426;2023-04-28T14:14:26;14.00;99.90
67890;DHT22;54685;52.082;5.426;2023-04-28T14:16:53;14.00;99.90
67890;DHT22;54685;52.082;5.426;2023-04-28T14:19:20;14.00;99.90
67890;DHT22;54685;52.082;5.426;2023-04-28T14:21:48;13.90;99.90
67890;DHT22;54685;52.082;5.426;2023-04-28T14:24:18;13.80;99.90
67890;DHT22;54685;52.082;5.426;2023-04-28T14:26:46;13.80;99.90
67890;DHT22;54685;52.082;5.426;2023-04-28T14:29:15;13.90;99.90
67890;DHT22;54685;52.082;5.426;2023-04-28T14:31:42;13.90;99.90
67890;DHT22;54685;52.082;5.426;2023-04-28T14:34:09;14.00;99.90
67890;DHT22;54685;52.082;5.426;2023-04-28T14:36:36;13.90;99.90
67890;DHT22;54685;52.082;5.426;2023-04-28T14:39:03;13.90;99.90
67890;DHT22;54685;52.082;5.426;2023-04-28T14:41:50;13.90;99.90
67890;DHT22;54685;52.082;5.426;2023-04-28T14:44:18;13.90;99.90
67890;DHT22;54685;52.082;5.426;2023-04-28T14:46:47;13.90;99.90
67890;DHT22;54685;52.082;5.426;2023-04-28T14:49:15;13.90;99.90
67890;DHT22;54685;52.082;5.426;2023-04-28T14:51:42;13.80;99.90
67890;DHT22;54685;52.082;5.426;2023-04-28T14:54:08;13.80;99.90
67890;DHT22;54685;52.082;5.426;2023-04-28T14:56:35;13.80;99.90
67890;DHT22;54685;52.082;5.426;2023-04-28T14:59:02;13.80;99.90
67890;DHT22;54685;52.082;5.426;2023-04-28T15:01:29;13.80;99.90
67890;DHT22;54685;52.082;5.426;2023-04-28T15:03:57;13.80;99.90
67890;DHT22;54685;52.082;5.426;2023-04-28T15:06:24;13.70;99.90
67890;DHT22;54685;52.082;5.426;2023-04-28T15:08:52;13.70;99.90
67890;DHT22;54685;52.082;5.426;2023-04-28T15:11:19;13.70;99.90
67890;DHT22;54685;52.082;5.426;2023-04-28T15:13:46;13.70;99.90
67890;DHT22;54685;52.082;5.426;2023-04-28T15:16:13;13.60;99.90
67890;DHT22;54685;52.082;5.426;2023-04-28T15:18:40;13.60;99.90
67890;DHT22;54685;52.082;5.426;2023-04-28T15:21:07;13.60;99.90
67890;DHT22;54685;52.082;5.426;2023-04-28T15:23:34;13.60;99.90
67890;DHT22;54685;52.082;5.426;2023-04-28T15:26:01;13.60;99.90
67890;DHT22;54685;52.082;5.426;2023-04-28T15:28:29;13.60;99.90
67890;DHT22;54685;52.082;5.426;2023-04-28T15:30:56;13.60;99.90
67890;DHT22;54685;52.082;5.426;2023-04-28T15:33:23;13.50;99.90
67890;DHT22;54685;52.082;5.426;2023-04-28T15:35:50;13.60;99.90
67890;DHT22;54685;52.082;5.426;2023-04-28T15:38:18;13.60;99.90
67890;DHT22;54685;52.082;5.426;2023-04-28T15:40:45;13.60;99.90
67890;DHT22;54685;52.082;5.426;2023-04-28T15:43:12;13.60;99.90
67890;DHT22;54685;52.082;5.426;2023-04-28T15:45:38;13.60;99.90
67890;DHT22;54685;52.082;5.426;2023-04-28T15:48:05;13.60;99.90
67890;DHT22;54685;52.082;5.426;2023-04-28T15:50:35;13.60;99.90
67890;DHT22;54685;52.082;5.426;2023-04-28T15:53:02;13.60;99.90
67890;DHT22;54685;52.082;5.426;2023-04-28T15:55:29;13.60;99.90
67890;DHT22;54685;52.082;5.426;2023-04-28T15:57:56;13.50;99.90
67890;DHT22;54685;52.082;5.426;2023-04-28T16:00:23;13.50;99.90
67890;DHT22;54685;52.082;5.426;2023-04-28T16:02:50;13.50;99.90
67890;DHT22;54685;52.082;5.426;2023-04-28T16:05:17;13.50;99.90
67890;DHT22;54685;52.082;5.426;2023-04-28T16:07:44;13.40;99.90
67890;DHT22;54685;52.082;5.426;2023-04-28T16:10:14;13.50;99.90
67890;DHT22;54685;52.082;5.426;2023-04-28T16:12:42;13.40;99.90
67890;DHT22;54685;52.082;5.426;2023-04-28T16:15:10;13.50;99.90
67890;DHT22;54685;52.082;5.426;2023-04-28T16:17:38;13.50;99.90
67890;DHT22;54685;52.082;5.426;2023-04-28T16:20:07;13.50;99.90
67890;DHT22;54685;52.082;5.426;2023-04-28T16:22:36;13.50;99.90
67890;DHT22;54685;52.082;5.426;2023-04-28T16:25:03;13.50;99.90
67890;DHT22;54685;52.082;5.426;2023-04-28T16:27:31;13.50;99.90
67890;DHT22;54685;52.082;5.426;2023-04-28T16:29:59;13.50;99.90
67890;DHT22;54685;52.082;5.426;2023-04-28T16:32:26;13.50;99.90
67890;DHT22;54685;52.082;5.426;2023-04-28T16:34:56;13.50;99.90
67890;DHT22;54685;52.082;5.426;2023-04-28T16:37:23;13.50;99.90
67890;DHT22;54685;52.082;5.426;2023-04-28T16:39:50;13.50;99.90
67890;DHT22;54685;52.082;5.426;2023-04-28T16:42:18;13.50;99.90
67890;DHT22;54685;52.082;5.426;2023-04-28T16:44:47;13.50;99.90
67890;DHT22;54685;52.082;5.426;2023-04-28T16:47:18;13.50;99.90
67890;DHT22;54685;52.082;5.426;2023-04-28T16:49:45;13.40;99.90
67890;DHT22;54685;52.082;5.426;2023-04-28T16:52:12;13.50;99.90
67890;DHT22;54685;52.082;5.426;2023-04-28T16:54:40;13.50;99.90
67890;DHT22;54685;52.082;5.426;2023-04-28T16:57:07;13.50;99.90
67890;DHT22;54685;52.082;5.426;2023-04-28T16:59:34;13.50;99.90